Time;durP1;ratioP1;P1;durP2;ratioP2;P2;SDS_P1;SDS_P2;PMS_P1;PMS_P2;Temp;Humidity;BMP_temperature;BMP_pressure;BME280_temperature;BME280_humidity;BME280_pressure;Samples;Min_cycle;Max_cycle;Signal;HPM_P1;HPM_P2
2022/08/26 00:01:16;;;;;;;0.00;0.00;;;21.60;99.90;;;;;;5014697;28;20363;-72
2022/08/26 00:03:43;;;;;;;0.10;0.10;;;21.40;99.90;;;;;;5014717;28;20030;-73
2022/08/26 00:06:09;;;;;;;0.20;0.20;;;21.40;99.90;;;;;;5013411;28;20440;-73
2022/08/26 00:08:35;;;;;;;0.00;0.00;;;21.50;99.90;;;;;;5013473;28;20025;-73
2022/08/26 00:11:01;;;;;;;0.10;0.10;;;21.40;99.90;;;;;;4997100;28;20449;-73
2022/08/26 00:13:28;;;;;;;0.10;0.10;;;21.30;99.90;;;;;;4997090;28;20580;-73
2022/08/26 00:15:54;;;;;;;0.10;0.10;;;21.30;99.90;;;;;;5014333;28;20609;-73
2022/08/26 00:18:20;;;;;;;0.10;0.10;;;21.20;99.90;;;;;;5014482;28;20093;-73
2022/08/26 00:20:46;;;;;;;0.10;0.10;;;21.10;99.90;;;;;;4996758;28;20046;-72
2022/08/26 00:23:12;;;;;;;0.10;0.10;;;21.00;99.90;;;;;;5014307;28;20443;-73
2022/08/26 00:25:38;;;;;;;0.20;0.20;;;21.00;99.90;;;;;;5014252;28;20055;-73
2022/08/26 00:28:05;;;;;;;0.03;0.03;;;21.00;99.90;;;;;;5014356;28;20382;-73
2022/08/26 00:30:33;;;;;;;0.20;0.20;;;20.90;99.90;;;;;;5013125;28;20022;-73
2022/08/26 00:32:59;;;;;;;0.10;0.10;;;20.90;99.90;;;;;;5014141;28;20367;-73
2022/08/26 00:35:26;;;;;;;0.45;0.45;;;20.90;99.90;;;;;;5012871;28;20026;-73
2022/08/26 00:37:53;;;;;;;0.10;0.10;;;20.90;99.90;;;;;;5014038;28;20069;-72
2022/08/26 00:40:29;;;;;;;0.38;0.38;;;20.90;99.90;;;;;;5012835;28;20097;-73
2022/08/26 00:42:55;;;;;;;0.00;0.00;;;20.90;99.90;;;;;;5014029;28;20021;-73
2022/08/26 00:45:21;;;;;;;0.00;0.00;;;20.90;99.90;;;;;;5013875;28;20079;-73
2022/08/26 00:47:59;;;;;;;0.10;0.10;;;21.00;99.90;;;;;;5013906;28;20034;-73
2022/08/26 00:50:30;;;;;;;0.10;0.10;;;20.80;99.90;;;;;;5014192;28;20053;-73
2022/08/26 00:52:58;;;;;;;0.10;0.10;;;20.80;99.90;;;;;;5012609;28;20363;-73
2022/08/26 00:55:32;;;;;;;0.00;0.00;;;20.60;99.90;;;;;;5013721;28;20037;-73
2022/08/26 00:57:59;;;;;;;2.15;1.05;;;20.50;99.90;;;;;;5013715;28;20026;-73
2022/08/26 01:00:27;;;;;;;1.77;1.63;;;20.40;99.90;;;;;;5013576;28;20018;-73
2022/08/26 01:02:55;;;;;;;0.47;0.30;;;20.20;99.90;;;;;;5012203;28;20116;-73
2022/08/26 01:05:21;;;;;;;0.03;0.03;;;20.00;99.90;;;;;;5013461;28;20092;-73
2022/08/26 01:07:47;;;;;;;0.75;0.75;;;19.90;99.90;;;;;;5013608;28;20505;-73
2022/08/26 01:10:17;;;;;;;0.10;0.10;;;19.90;99.90;;;;;;5013494;28;20025;-73
2022/08/26 01:12:54;;;;;;;0.10;0.10;;;20.00;99.90;;;;;;5012111;28;20402;-72
2022/08/26 01:15:25;;;;;;;2.63;1.85;;;20.00;99.90;;;;;;5013279;28;20038;-73
2022/08/26 01:17:51;;;;;;;0.03;0.03;;;20.10;99.90;;;;;;5013332;28;20037;-73
2022/08/26 01:20:40;;;;;;;0.05;0.05;;;20.30;99.90;;;;;;5013332;28;20034;-73
2022/08/26 01:23:08;;;;;;;0.10;0.10;;;20.40;99.90;;;;;;5013105;28;20021;-73
2022/08/26 01:25:39;;;;;;;0.20;0.20;;;20.50;99.90;;;;;;5013128;28;20022;-73
2022/08/26 01:28:10;;;;;;;0.20;0.20;;;20.40;99.90;;;;;;5012128;28;20473;-73
2022/08/26 01:30:38;;;;;;;0.10;0.10;;;20.40;99.90;;;;;;5011909;28;20157;-73
2022/08/26 01:33:09;;;;;;;0.10;0.10;;;20.30;99.90;;;;;;5011802;28;20390;-73
2022/08/26 01:35:36;;;;;;;0.47;0.47;;;20.20;99.90;;;;;;5013015;28;20029;-73
2022/08/26 01:38:03;;;;;;;0.05;0.05;;;20.20;99.90;;;;;;5011837;28;20105;-73
2022/08/26 01:40:36;;;;;;;1.98;0.52;;;20.20;99.90;;;;;;5012755;28;20029;-73
2022/08/26 01:43:05;;;;;;;0.60;0.60;;;20.20;99.90;;;;;;5012862;28;20359;-73
2022/08/26 01:45:34;;;;;;;0.47;0.47;;;19.90;99.90;;;;;;4995501;28;20053;-73
2022/08/26 01:48:03;;;;;;;0.10;0.10;;;19.70;99.90;;;;;;5012490;28;20482;-73
2022/08/26 01:50:34;;;;;;;0.30;0.30;;;19.80;99.90;;;;;;5011658;28;20026;-73
2022/08/26 01:53:04;;;;;;;0.20;0.20;;;19.90;99.90;;;;;;5011382;28;20076;-72
2022/08/26 01:55:31;;;;;;;1.65;1.20;;;19.80;99.90;;;;;;5012661;28;20421;-72
2022/08/26 01:57:59;;;;;;;0.13;0.13;;;19.60;99.90;;;;;;5012649;28;20381;-73
2022/08/26 02:00:25;;;;;;;1.90;1.15;;;19.50;99.90;;;;;;5012588;28;20033;-73
2022/08/26 02:03:15;;;;;;;0.70;0.50;;;19.40;99.90;;;;;;4994999;28;20032;-73
2022/08/26 02:06:02;;;;;;;0.75;0.68;;;19.10;99.90;;;;;;5012495;28;20021;-73
2022/08/26 02:08:41;;;;;;;0.10;0.10;;;19.10;99.90;;;;;;4994732;28;20201;-73
2022/08/26 02:11:08;;;;;;;0.10;0.10;;;19.40;99.90;;;;;;5011186;28;20021;-73
2022/08/26 02:13:38;;;;;;;0.80;0.45;;;19.60;99.90;;;;;;5012527;28;20475;-73
2022/08/26 02:16:05;;;;;;;0.10;0.10;;;19.50;99.90;;;;;;5012181;28;20053;-73
2022/08/26 02:18:33;;;;;;;0.20;0.20;;;19.50;99.90;;;;;;5012475;28;20080;-72
2022/08/26 02:20:59;;;;;;;0.10;0.10;;;19.50;99.90;;;;;;5012763;28;20026;-70
2022/08/26 02:23:25;;;;;;;0.30;0.30;;;19.70;99.90;;;;;;4994917;28;20389;-73
2022/08/26 02:26:13;;;;;;;0.10;0.10;;;19.70;99.90;;;;;;5012109;28;20030;-73
2022/08/26 02:28:57;;;;;;;0.00;0.00;;;19.60;99.90;;;;;;5012180;28;20029;-73
2022/08/26 02:31:24;;;;;;;0.20;0.20;;;19.40;99.90;;;;;;5010787;28;20025;-72
2022/08/26 02:33:50;;;;;;;0.10;0.10;;;19.40;99.90;;;;;;5012159;28;20029;-73
2022/08/26 02:36:20;;;;;;;0.10;0.10;;;19.40;99.90;;;;;;5011976;28;20474;-73
2022/08/26 02:38:46;;;;;;;1.48;1.38;;;19.30;99.90;;;;;;5011029;28;20025;-73
2022/08/26 02:41:12;;;;;;;1.27;0.52;;;19.30;99.90;;;;;;5010660;28;20033;-73
2022/08/26 02:43:38;;;;;;;0.00;0.00;;;19.40;99.90;;;;;;5012090;28;20018;-73
2022/08/26 02:46:04;;;;;;;0.10;0.10;;;19.40;99.90;;;;;;5011995;28;20061;-73
2022/08/26 02:48:30;;;;;;;0.00;0.00;;;19.40;99.90;;;;;;5012201;28;20129;-72
2022/08/26 02:51:01;;;;;;;0.13;0.13;;;19.40;99.90;;;;;;5012085;28;20022;-73
2022/08/26 02:53:27;;;;;;;2.38;1.17;;;19.30;99.90;;;;;;5010905;28;20068;-73
2022/08/26 02:55:53;;;;;;;0.08;0.08;;;19.20;99.90;;;;;;5011781;28;20072;-72
2022/08/26 02:58:19;;;;;;;0.00;0.00;;;19.10;99.90;;;;;;4994715;28;20033;-72
2022/08/26 03:00:46;;;;;;;0.20;0.20;;;19.10;99.90;;;;;;5015930;28;20026;-73
2022/08/26 03:03:14;;;;;;;0.30;0.30;;;19.30;99.90;;;;;;5015636;28;20481;-73
2022/08/26 03:05:41;;;;;;;0.05;0.05;;;19.40;99.90;;;;;;5014383;28;20030;-73
2022/08/26 03:08:10;;;;;;;1.95;0.75;;;19.50;99.90;;;;;;5015749;28;20014;-73
2022/08/26 03:10:37;;;;;;;0.77;0.77;;;19.40;99.90;;;;;;5014413;28;20096;-73
2022/08/26 03:13:03;;;;;;;0.10;0.10;;;19.40;99.90;;;;;;5015597;28;20476;-72
2022/08/26 03:15:28;;;;;;;0.10;0.10;;;19.40;99.90;;;;;;5014234;28;20028;-73
2022/08/26 03:17:55;;;;;;;0.10;0.10;;;19.30;99.90;;;;;;5014384;28;20433;-73
2022/08/26 03:20:21;;;;;;;0.10;0.10;;;19.20;99.90;;;;;;5014382;28;20022;-73
2022/08/26 03:22:46;;;;;;;0.03;0.03;;;19.10;99.90;;;;;;4997941;28;20557;-73
2022/08/26 03:25:15;;;;;;;0.15;0.15;;;19.00;99.90;;;;;;5015329;28;20465;-72
2022/08/26 03:27:41;;;;;;;0.10;0.10;;;19.10;99.90;;;;;;5015613;28;20030;-73
2022/08/26 03:32:52;;;;;;;0.10;0.10;;;18.90;99.90;;;;;;5014025;28;20068;-73
2022/08/26 03:35:18;;;;;;;0.10;0.10;;;18.80;99.90;;;;;;5015142;28;20485;-72
2022/08/26 03:37:44;;;;;;;0.03;0.03;;;18.80;99.90;;;;;;5015193;28;20389;-73
2022/08/26 03:40:10;;;;;;;0.52;0.52;;;18.70;99.90;;;;;;5015038;28;20138;-73
2022/08/26 03:42:39;;;;;;;0.50;0.50;;;18.60;99.90;;;;;;5013785;28;20022;-72
2022/08/26 03:45:07;;;;;;;0.10;0.10;;;18.50;99.90;;;;;;5015043;28;20053;-72
2022/08/26 03:47:33;;;;;;;0.25;0.25;;;18.40;99.90;;;;;;5013925;28;20026;-73
2022/08/26 03:49:59;;;;;;;0.98;0.98;;;18.30;99.90;;;;;;5014930;28;20436;-73
2022/08/26 03:52:25;;;;;;;0.43;0.43;;;18.20;99.90;;;;;;5013641;28;20049;-73
2022/08/26 03:54:51;;;;;;;0.80;0.80;;;18.20;99.90;;;;;;5013812;28;20481;-73
2022/08/26 03:57:17;;;;;;;2.55;2.10;;;18.10;99.90;;;;;;5013571;28;20026;-72
2022/08/26 03:59:42;;;;;;;0.10;0.10;;;18.10;99.90;;;;;;5014807;28;20436;-73
2022/08/26 04:02:08;;;;;;;0.85;0.85;;;18.00;99.90;;;;;;5013403;28;20029;-73
2022/08/26 04:04:34;;;;;;;0.10;0.10;;;17.90;99.90;;;;;;5058370;23;20048;-77
2022/08/26 04:07:00;;;;;;;0.10;0.10;;;18.00;99.90;;;;;;5036247;28;20027;-77
2022/08/26 04:09:27;;;;;;;0.10;0.10;;;18.10;99.90;;;;;;5044203;28;20143;-78
2022/08/26 04:11:53;;;;;;;0.00;0.00;;;18.20;99.90;;;;;;5031131;28;20066;-77
2022/08/26 04:14:22;;;;;;;0.10;0.10;;;18.40;99.90;;;;;;5036866;28;20439;-77
2022/08/26 04:16:49;;;;;;;0.20;0.20;;;18.40;99.90;;;;;;5048309;28;20021;-77
2022/08/26 04:19:16;;;;;;;0.00;0.00;;;18.50;99.90;;;;;;5056039;28;20021;-77
2022/08/26 04:21:42;;;;;;;0.20;0.20;;;18.60;99.90;;;;;;5056361;28;20025;-77
2022/08/26 04:24:10;;;;;;;0.00;0.00;;;18.60;99.90;;;;;;5056490;28;20013;-77
2022/08/26 04:26:36;;;;;;;0.20;0.20;;;18.70;99.90;;;;;;5055308;28;20099;-78
2022/08/26 04:29:09;;;;;;;0.73;0.70;;;18.80;99.90;;;;;;5056355;28;20020;-77
2022/08/26 04:31:36;;;;;;;0.32;0.32;;;18.70;99.90;;;;;;5056281;28;20036;-77
2022/08/26 04:34:02;;;;;;;0.10;0.10;;;18.50;99.90;;;;;;5038227;28;20033;-77
2022/08/26 04:36:28;;;;;;;0.20;0.20;;;18.40;99.90;;;;;;5056358;28;20024;-77
2022/08/26 04:38:55;;;;;;;0.10;0.10;;;18.50;99.90;;;;;;5056168;28;20025;-78
2022/08/26 04:41:22;;;;;;;0.93;0.93;;;18.50;99.90;;;;;;5055722;28;20017;-77
2022/08/26 04:43:49;;;;;;;0.25;0.25;;;18.60;99.90;;;;;;5054414;28;20075;-77
2022/08/26 04:46:24;;;;;;;0.10;0.10;;;18.40;99.90;;;;;;5055088;28;20025;-77
2022/08/26 04:48:51;;;;;;;0.73;0.73;;;18.30;99.90;;;;;;5054024;28;20396;-78
2022/08/26 04:51:19;;;;;;;0.20;0.20;;;18.20;99.90;;;;;;5055106;28;20419;-77
2022/08/26 04:53:45;;;;;;;1.75;1.58;;;18.20;99.90;;;;;;5054161;28;20024;-78
2022/08/26 04:56:12;;;;;;;0.98;0.77;;;18.10;99.90;;;;;;5055033;28;20028;-77
2022/08/26 04:58:38;;;;;;;6.47;3.00;;;18.20;99.90;;;;;;5037327;28;20029;-77
2022/08/26 05:01:05;;;;;;;0.50;0.28;;;18.20;99.90;;;;;;5054766;28;20017;-77
2022/08/26 05:03:30;;;;;;;0.88;0.35;;;18.00;99.90;;;;;;5054232;28;20107;-77
2022/08/26 05:05:57;;;;;;;0.55;0.55;;;17.90;99.90;;;;;;5054608;28;20159;-78
2022/08/26 05:08:23;;;;;;;2.42;0.55;;;17.90;99.90;;;;;;5053401;28;20020;-77
2022/08/26 05:10:53;;;;;;;4.80;0.73;;;18.00;99.90;;;;;;5055147;28;20396;-77
2022/08/26 05:13:21;;;;;;;0.38;0.30;;;18.10;99.90;;;;;;5054921;28;20031;-78
2022/08/26 05:15:48;;;;;;;0.10;0.10;;;18.20;99.90;;;;;;5052316;28;20361;-78
2022/08/26 05:18:19;;;;;;;0.63;0.40;;;18.20;99.90;;;;;;5054202;28;20384;-78
2022/08/26 05:20:48;;;;;;;0.00;0.00;;;18.40;99.90;;;;;;5053680;28;20017;-78
2022/08/26 05:23:14;;;;;;;0.10;0.10;;;18.60;99.90;;;;;;5037174;28;20051;-77
2022/08/26 05:25:47;;;;;;;0.00;0.00;;;18.70;99.90;;;;;;5055805;28;20029;-77
2022/08/26 05:28:15;;;;;;;0.10;0.10;;;18.90;99.90;;;;;;5038324;28;20025;-78
2022/08/26 05:30:41;;;;;;;0.57;0.57;;;19.10;99.90;;;;;;5055442;28;20049;-77
2022/08/26 05:33:08;;;;;;;0.10;0.10;;;19.10;99.90;;;;;;5037487;28;20052;-77
2022/08/26 05:35:37;;;;;;;0.30;0.30;;;19.20;99.90;;;;;;5054797;28;20139;-77
2022/08/26 05:38:08;;;;;;;0.10;0.10;;;19.20;99.90;;;;;;5053849;28;20070;-78
2022/08/26 05:40:39;;;;;;;0.17;0.17;;;19.20;99.90;;;;;;5049195;28;20021;-78
2022/08/26 05:43:09;;;;;;;0.05;0.05;;;19.10;99.90;;;;;;5041048;28;20108;-78
2022/08/26 05:45:47;;;;;;;0.10;0.10;;;19.10;99.90;;;;;;5048736;28;20021;-78
2022/08/26 05:48:15;;;;;;;0.45;0.35;;;19.20;99.90;;;;;;5052814;28;20431;-77
2022/08/26 05:50:44;;;;;;;1.75;0.85;;;19.20;99.90;;;;;;5019882;28;20084;-78
2022/08/26 05:53:12;;;;;;;0.10;0.10;;;19.30;99.90;;;;;;5054990;28;20021;-78
2022/08/26 05:55:46;;;;;;;0.55;0.55;;;19.40;99.90;;;;;;5036319;28;20036;-78
2022/08/26 05:58:13;;;;;;;0.43;0.43;;;19.60;99.90;;;;;;5053759;28;20140;-78
2022/08/26 06:00:40;;;;;;;0.70;0.70;;;19.60;99.90;;;;;;5055060;28;20021;-78
2022/08/26 06:03:07;;;;;;;0.47;0.47;;;19.70;99.90;;;;;;5054513;28;20040;-77
2022/08/26 06:05:37;;;;;;;0.52;0.52;;;19.70;99.90;;;;;;5052672;28;20557;-78
2022/08/26 06:08:17;;;;;;;0.10;0.10;;;19.70;99.90;;;;;;5052947;28;20527;-78
2022/08/26 06:10:54;;;;;;;0.20;0.20;;;19.70;99.90;;;;;;5053206;28;20029;-77
2022/08/26 06:13:22;;;;;;;2.33;0.80;;;19.80;99.90;;;;;;5033170;28;20100;-77
2022/08/26 06:15:50;;;;;;;0.13;0.13;;;19.80;99.90;;;;;;5052342;28;20039;-77
2022/08/26 06:18:19;;;;;;;0.20;0.20;;;20.00;99.90;;;;;;5055698;28;20024;-78
2022/08/26 06:20:46;;;;;;;0.32;0.32;;;20.30;99.90;;;;;;5054578;28;20021;-78
2022/08/26 06:25:59;;;;;;;0.10;0.10;;;20.70;99.90;;;;;;5054674;28;20033;-78
2022/08/26 06:28:26;;;;;;;0.05;0.05;;;20.70;99.90;;;;;;5055236;28;20380;-78
2022/08/26 06:30:54;;;;;;;0.00;0.00;;;20.90;99.90;;;;;;5055673;28;20075;-78
2022/08/26 06:33:25;;;;;;;0.10;0.10;;;21.10;99.90;;;;;;5053732;28;20014;-78
2022/08/26 06:35:52;;;;;;;0.10;0.10;;;21.30;99.90;;;;;;5038603;28;20017;-77
2022/08/26 06:38:18;;;;;;;0.10;0.10;;;21.50;99.90;;;;;;5054934;28;20095;-78
2022/08/26 06:40:48;;;;;;;0.47;0.47;;;21.60;99.90;;;;;;5057055;28;20479;-78
2022/08/26 06:43:17;;;;;;;0.10;0.10;;;21.80;99.90;;;;;;5055143;28;20543;-77
2022/08/26 06:45:44;;;;;;;0.10;0.10;;;21.90;99.90;;;;;;5056414;28;20106;-77
2022/08/26 06:48:12;;;;;;;0.10;0.10;;;22.10;99.90;;;;;;5055325;28;20025;-78
2022/08/26 06:50:38;;;;;;;0.20;0.20;;;22.20;99.90;;;;;;5056644;28;20559;-78
2022/08/26 06:53:04;;;;;;;0.28;0.28;;;22.30;99.90;;;;;;5055072;28;20025;-78
2022/08/26 06:55:30;;;;;;;0.00;0.00;;;22.40;99.90;;;;;;5054628;28;20060;-77
2022/08/26 06:57:56;;;;;;;0.00;0.00;;;22.50;99.90;;;;;;5051431;28;20040;-77
2022/08/26 07:00:22;;;;;;;0.10;0.10;;;22.60;99.90;;;;;;5047340;28;20033;-78
2022/08/26 07:02:48;;;;;;;0.00;0.00;;;22.60;99.90;;;;;;5012424;28;20179;-77
2022/08/26 07:05:14;;;;;;;0.00;0.00;;;22.70;99.90;;;;;;5027355;28;20312;-78
2022/08/26 07:07:40;;;;;;;0.25;0.25;;;22.70;99.90;;;;;;5030418;28;20045;-78
2022/08/26 07:10:07;;;;;;;0.10;0.10;;;22.80;99.90;;;;;;5031396;28;20122;-78
2022/08/26 07:12:35;;;;;;;0.00;0.00;;;22.90;99.90;;;;;;5030421;28;20029;-78
2022/08/26 07:15:01;;;;;;;0.00;0.00;;;23.00;99.90;;;;;;5032295;28;20041;-77
2022/08/26 07:17:27;;;;;;;0.00;0.00;;;23.20;99.90;;;;;;5030796;28;20040;-78
2022/08/26 07:19:53;;;;;;;0.20;0.20;;;23.40;99.90;;;;;;5030622;28;20457;-79
2022/08/26 07:22:18;;;;;;;0.05;0.05;;;23.40;99.00;;;;;;5031067;28;20113;-77
2022/08/26 07:24:44;;;;;;;0.70;0.57;;;23.40;98.40;;;;;;5012365;28;20026;-77
2022/08/26 07:27:14;;;;;;;0.00;0.00;;;23.40;98.90;;;;;;5030115;28;20501;-77
2022/08/26 07:29:42;;;;;;;0.00;0.00;;;23.40;97.80;;;;;;5012181;28;20033;-77
2022/08/26 07:32:09;;;;;;;0.17;0.17;;;23.50;96.70;;;;;;5031040;28;20038;-77
2022/08/26 07:34:38;;;;;;;0.00;0.00;;;23.50;95.20;;;;;;5028705;28;21190;-77
2022/08/26 07:37:05;;;;;;;0.00;0.00;;;23.50;95.10;;;;;;5029773;28;20468;-77
2022/08/26 07:39:31;;;;;;;0.00;0.00;;;23.60;95.30;;;;;;5033615;28;20028;-77
2022/08/26 07:41:56;;;;;;;0.25;0.25;;;23.60;95.40;;;;;;5029792;28;20025;-77
2022/08/26 07:44:23;;;;;;;0.00;0.00;;;23.70;94.60;;;;;;5030324;28;20503;-77
2022/08/26 07:46:49;;;;;;;0.00;0.00;;;23.70;94.60;;;;;;5033682;28;20048;-78
2022/08/26 07:49:16;;;;;;;0.10;0.10;;;23.80;95.10;;;;;;5032630;28;20092;-77
2022/08/26 07:51:42;;;;;;;0.13;0.13;;;23.90;95.00;;;;;;5032894;28;20041;-77
2022/08/26 07:54:08;;;;;;;0.00;0.00;;;23.80;94.00;;;;;;5034505;28;20108;-77
2022/08/26 07:56:34;;;;;;;0.00;0.00;;;23.90;93.80;;;;;;5033162;28;20101;-77
2022/08/26 07:59:01;;;;;;;0.00;0.00;;;24.00;93.20;;;;;;5015361;28;20029;-77
2022/08/26 08:01:28;;;;;;;0.30;0.10;;;24.20;92.60;;;;;;5036472;28;20037;-77
2022/08/26 08:03:56;;;;;;;0.00;0.00;;;24.30;92.20;;;;;;5034476;28;20069;-76
2022/08/26 08:06:24;;;;;;;0.03;0.03;;;24.50;91.90;;;;;;5017479;28;20034;-77
2022/08/26 08:08:50;;;;;;;0.10;0.10;;;24.60;92.00;;;;;;5034376;28;20045;-77
2022/08/26 08:11:19;;;;;;;0.00;0.00;;;24.80;91.40;;;;;;5036781;28;20040;-77
2022/08/26 08:13:46;;;;;;;0.22;0.22;;;25.10;90.70;;;;;;5016375;28;20033;-77
2022/08/26 08:16:12;;;;;;;0.03;0.03;;;25.10;90.20;;;;;;5034019;28;20035;-77
2022/08/26 08:18:39;;;;;;;0.00;0.00;;;25.10;90.70;;;;;;5029668;28;20029;-77
2022/08/26 08:21:04;;;;;;;0.00;0.00;;;25.00;90.70;;;;;;5016733;28;20377;-77
2022/08/26 08:23:31;;;;;;;0.00;0.00;;;25.10;90.50;;;;;;5031331;28;20043;-77
2022/08/26 08:26:06;;;;;;;0.20;0.20;;;25.20;90.00;;;;;;5033699;28;20045;-77
2022/08/26 08:28:32;;;;;;;0.00;0.00;;;25.40;89.30;;;;;;5030290;28;20029;-77
2022/08/26 08:30:58;;;;;;;0.60;0.60;;;25.50;89.10;;;;;;5030214;28;20055;-77
2022/08/26 08:33:24;;;;;;;0.00;0.00;;;25.60;87.20;;;;;;5031451;28;20488;-77
2022/08/26 08:35:51;;;;;;;0.00;0.00;;;25.60;87.80;;;;;;5031334;28;20180;-77
2022/08/26 08:38:17;;;;;;;0.90;0.70;;;25.50;87.20;;;;;;5031949;28;20464;-77
2022/08/26 08:40:44;;;;;;;0.10;0.10;;;25.30;87.20;;;;;;5030036;28;20032;-77
2022/08/26 08:43:13;;;;;;;0.50;0.50;;;25.30;87.90;;;;;;5029161;28;20095;-77
2022/08/26 08:45:45;;;;;;;1.75;1.02;;;25.10;87.40;;;;;;5032894;28;20038;-76
2022/08/26 08:48:21;;;;;;;0.00;0.00;;;25.00;87.20;;;;;;5029454;28;20115;-77
2022/08/26 08:50:54;;;;;;;0.32;0.32;;;24.90;88.50;;;;;;5032396;28;20566;-78
2022/08/26 08:53:23;;;;;;;0.43;0.38;;;25.00;88.80;;;;;;5015547;28;20037;-78
2022/08/26 08:56:26;;;;;;;0.20;0.20;;;24.90;88.50;;;;;;5034224;28;20067;-77
2022/08/26 08:58:58;;;;;;;0.10;0.10;;;24.90;89.60;;;;;;5032934;28;20033;-78
2022/08/26 09:01:32;;;;;;;0.20;0.20;;;24.60;89.60;;;;;;5033602;28;20056;-78
2022/08/26 09:04:13;;;;;;;0.10;0.10;;;24.70;90.00;;;;;;5034373;28;20166;-77
2022/08/26 09:06:39;;;;;;;0.57;0.30;;;24.90;89.50;;;;;;5017522;28;20034;-77
2022/08/26 09:09:06;;;;;;;0.10;0.10;;;25.20;88.00;;;;;;5036236;28;20375;-77
2022/08/26 09:11:34;;;;;;;0.00;0.00;;;25.50;87.20;;;;;;5038570;28;20467;-77
2022/08/26 09:14:00;;;;;;;0.73;0.73;;;26.10;85.60;;;;;;5038314;28;20437;-78
2022/08/26 09:16:44;;;;;;;1.88;1.42;;;26.40;82.70;;;;;;5054129;28;20123;-77
2022/08/26 09:19:32;;;;;;;0.10;0.10;;;26.50;81.20;;;;;;5034228;28;20523;-77
2022/08/26 09:21:59;;;;;;;0.73;0.73;;;26.70;81.10;;;;;;5015115;28;20507;-77
2022/08/26 09:24:28;;;;;;;0.28;0.20;;;27.20;78.70;;;;;;5032328;28;20064;-77
2022/08/26 09:26:56;;;;;;;9.23;1.15;;;27.60;76.20;;;;;;5032233;28;20041;-77
2022/08/26 09:29:28;;;;;;;0.00;0.00;;;27.80;74.50;;;;;;5019313;28;20049;-78
2022/08/26 09:32:14;;;;;;;0.82;0.28;;;28.30;74.20;;;;;;5017596;28;20038;-77
2022/08/26 09:34:58;;;;;;;0.13;0.13;;;28.80;71.80;;;;;;5020441;28;20666;-77
2022/08/26 09:37:41;;;;;;;0.75;0.50;;;29.00;70.80;;;;;;5035708;28;20092;-77
2022/08/26 09:40:29;;;;;;;0.00;0.00;;;29.40;67.80;;;;;;5033087;28;20064;-77
2022/08/26 09:43:21;;;;;;;0.00;0.00;;;29.20;68.30;;;;;;5036561;28;20115;-77
2022/08/26 09:45:55;;;;;;;0.32;0.32;;;29.80;66.30;;;;;;5017539;28;20576;-77
2022/08/26 09:48:31;;;;;;;0.00;0.00;;;29.30;66.30;;;;;;5017302;28;20438;-78
2022/08/26 09:51:22;;;;;;;0.08;0.08;;;29.50;65.90;;;;;;5035548;28;20037;-77
2022/08/26 09:53:57;;;;;;;0.63;0.63;;;30.20;64.70;;;;;;5020119;28;20457;-78
2022/08/26 09:56:26;;;;;;;0.10;0.10;;;30.80;61.70;;;;;;5038855;28;20025;-78
2022/08/26 09:58:52;;;;;;;0.43;0.43;;;30.90;60.70;;;;;;5037152;28;20223;-77
2022/08/26 10:01:40;;;;;;;0.30;0.30;;;30.90;60.00;;;;;;5020982;28;20041;-78
2022/08/26 10:04:11;;;;;;;0.10;0.10;;;31.20;59.30;;;;;;5107874;23;20055;-74
2022/08/26 10:06:42;;;;;;;0.47;0.47;;;31.20;58.50;;;;;;5048134;28;20139;-75
2022/08/26 10:09:15;;;;;;;0.53;0.53;;;31.20;57.70;;;;;;5050311;28;20103;-74
2022/08/26 10:11:57;;;;;;;0.00;0.00;;;31.50;57.70;;;;;;5050845;28;20430;-74
2022/08/26 10:14:29;;;;;;;0.00;0.00;;;32.10;57.20;;;;;;5049645;28;20017;-74
2022/08/26 10:17:25;;;;;;;0.30;0.20;;;32.20;56.40;;;;;;5049675;28;20111;-74
2022/08/26 10:20:05;;;;;;;0.85;0.77;;;32.10;54.80;;;;;;5049244;28;20168;-74
2022/08/26 10:22:49;;;;;;;1.55;1.08;;;32.30;54.00;;;;;;5051569;28;20025;-74
2022/08/26 10:25:22;;;;;;;0.22;0.22;;;32.20;54.10;;;;;;5050414;28;20474;-74
2022/08/26 10:27:59;;;;;;;1.77;0.90;;;32.70;53.60;;;;;;5051553;28;20158;-74
2022/08/26 10:30:32;;;;;;;0.00;0.00;;;33.00;52.80;;;;;;5051428;28;20036;-74
2022/08/26 10:33:06;;;;;;;0.20;0.20;;;33.30;53.00;;;;;;5050204;28;20465;-74
2022/08/26 10:35:34;;;;;;;0.70;0.70;;;33.20;51.90;;;;;;5051565;28;20021;-74
2022/08/26 10:38:10;;;;;;;0.57;0.43;;;32.50;52.40;;;;;;5051478;28;20537;-74
2022/08/26 10:40:41;;;;;;;1.65;0.57;;;32.20;52.50;;;;;;5051626;28;20052;-74
2022/08/26 10:43:14;;;;;;;0.38;0.30;;;32.00;53.20;;;;;;5051289;28;20040;-74
2022/08/26 10:45:49;;;;;;;0.93;0.70;;;32.20;53.10;;;;;;5050140;28;20090;-76
2022/08/26 10:48:33;;;;;;;0.43;0.43;;;32.30;52.50;;;;;;5050477;28;20053;-75
2022/08/26 10:51:01;;;;;;;1.83;0.85;;;32.30;52.60;;;;;;5051211;28;20105;-76
2022/08/26 10:53:45;;;;;;;0.10;0.10;;;32.00;53.20;;;;;;5051487;28;20503;-75
2022/08/26 10:56:47;;;;;;;0.98;0.63;;;32.20;52.10;;;;;;5050056;28;20021;-75
2022/08/26 10:59:44;;;;;;;1.33;0.85;;;31.50;52.20;;;;;;5051365;28;20028;-75
2022/08/26 11:02:23;;;;;;;0.47;0.10;;;32.10;52.00;;;;;;5051382;28;20464;-75
2022/08/26 11:04:57;;;;;;;0.15;0.15;;;32.80;50.90;;;;;;5051221;28;20040;-73
2022/08/26 11:07:34;;;;;;;0.65;0.65;;;33.40;50.10;;;;;;5051312;28;20021;-76
2022/08/26 11:10:05;;;;;;;0.00;0.00;;;33.40;49.20;;;;;;5051346;28;20029;-76
2022/08/26 11:12:34;;;;;;;0.32;0.03;;;33.40;49.50;;;;;;5051261;28;20487;-72
2022/08/26 11:15:04;;;;;;;0.82;0.47;;;33.40;49.40;;;;;;5049352;28;20055;-72
2022/08/26 11:17:44;;;;;;;0.43;0.43;;;33.20;50.10;;;;;;5051110;28;20040;-73
2022/08/26 11:20:28;;;;;;;0.80;0.05;;;33.50;49.20;;;;;;5051634;28;20025;-73
2022/08/26 11:23:15;;;;;;;4.97;1.40;;;34.00;48.90;;;;;;5054880;28;20021;-73
2022/08/26 11:26:12;;;;;;;0.75;0.75;;;33.70;48.20;;;;;;5053260;28;20461;-76
2022/08/26 11:28:48;;;;;;;0.00;0.00;;;34.00;47.20;;;;;;5053796;28;20033;-75
2022/08/26 11:31:23;;;;;;;4.30;1.35;;;34.00;46.20;;;;;;5053500;28;20362;-72
2022/08/26 11:34:00;;;;;;;0.60;0.35;;;34.10;46.60;;;;;;5054731;28;20103;-73
2022/08/26 11:36:46;;;;;;;0.60;0.55;;;34.40;46.80;;;;;;5049446;28;20495;-73
2022/08/26 11:39:33;;;;;;;0.22;0.22;;;33.90;46.10;;;;;;5042181;28;20131;-73
2022/08/26 11:42:28;;;;;;;0.30;0.15;;;33.80;45.90;;;;;;5053218;28;20503;-73
2022/08/26 11:44:54;;;;;;;0.10;0.10;;;32.80;47.50;;;;;;5036996;28;20025;-73
2022/08/26 11:47:29;;;;;;;0.17;0.17;;;32.10;47.60;;;;;;5053398;28;20052;-73
2022/08/26 11:50:30;;;;;;;0.00;0.00;;;31.60;48.50;;;;;;5054414;28;20029;-73
2022/08/26 11:53:04;;;;;;;0.00;0.00;;;31.40;50.20;;;;;;4997068;28;20514;-72
2022/08/26 11:55:33;;;;;;;0.47;0.47;;;31.20;49.60;;;;;;5045086;28;20118;-72
2022/08/26 11:58:01;;;;;;;0.00;0.00;;;30.90;49.20;;;;;;5054081;28;20036;-73
2022/08/26 12:00:36;;;;;;;0.10;0.10;;;31.20;49.60;;;;;;5052836;28;20032;-73
2022/08/26 12:03:06;;;;;;;1.05;1.02;;;31.00;50.60;;;;;;5052374;28;20079;-73
2022/08/26 12:05:42;;;;;;;1.35;1.27;;;30.80;51.70;;;;;;5052972;28;20036;-74
2022/08/26 12:08:12;;;;;;;0.52;0.28;;;31.30;51.30;;;;;;5053626;28;20104;-74
2022/08/26 12:10:38;;;;;;;0.10;0.00;;;31.40;50.40;;;;;;5054429;28;20025;-74
2022/08/26 12:13:06;;;;;;;1.90;0.52;;;31.30;51.10;;;;;;5054033;28;20025;-74
2022/08/26 12:15:34;;;;;;;0.00;0.00;;;31.00;50.40;;;;;;5053795;28;20075;-76
2022/08/26 12:18:18;;;;;;;0.40;0.40;;;30.70;50.40;;;;;;5053924;28;20083;-75
2022/08/26 12:20:53;;;;;;;1.05;0.75;;;30.60;50.10;;;;;;5052868;28;20044;-74
2022/08/26 12:23:40;;;;;;;0.30;0.30;;;30.90;49.60;;;;;;5053904;28;20013;-74
2022/08/26 12:26:30;;;;;;;0.00;0.00;;;31.10;49.20;;;;;;5053779;28;20043;-74
2022/08/26 12:29:01;;;;;;;1.17;0.75;;;31.30;49.20;;;;;;5053926;28;20427;-75
2022/08/26 12:31:39;;;;;;;1.83;0.57;;;31.40;48.30;;;;;;5053899;28;20024;-75
2022/08/26 12:34:08;;;;;;;0.47;0.47;;;31.40;48.60;;;;;;5053766;28;20079;-75
2022/08/26 12:36:38;;;;;;;0.08;0.08;;;31.50;49.20;;;;;;5053575;28;20055;-75
2022/08/26 12:39:06;;;;;;;0.13;0.13;;;31.70;49.00;;;;;;5052467;28;20024;-75
2022/08/26 12:41:44;;;;;;;0.68;0.40;;;31.60;48.10;;;;;;5053454;28;20078;-75
2022/08/26 12:44:35;;;;;;;1.80;1.70;;;31.40;48.30;;;;;;5053525;28;20025;-75
2022/08/26 12:47:32;;;;;;;0.00;0.00;;;31.20;49.70;;;;;;5053464;28;20029;-74
2022/08/26 12:50:08;;;;;;;0.20;0.20;;;30.90;50.70;;;;;;5044211;28;20292;-74
2022/08/26 12:52:50;;;;;;;2.05;0.20;;;30.30;50.90;;;;;;5042036;28;20030;-75
2022/08/26 12:55:21;;;;;;;0.10;0.10;;;30.50;51.10;;;;;;5047136;28;20440;-75
2022/08/26 12:57:47;;;;;;;0.00;0.00;;;30.80;50.90;;;;;;5050318;28;20029;-75
2022/08/26 13:00:35;;;;;;;0.73;0.43;;;30.90;49.90;;;;;;5051799;28;20097;-75
2022/08/26 13:03:01;;;;;;;0.10;0.10;;;30.80;50.30;;;;;;5050535;28;20051;-75
2022/08/26 13:05:37;;;;;;;1.35;0.95;;;30.20;51.20;;;;;;5050878;28;20155;-75
2022/08/26 13:08:25;;;;;;;0.10;0.08;;;30.20;52.30;;;;;;5052374;28;20029;-74
2022/08/26 13:11:22;;;;;;;0.40;0.40;;;30.30;50.90;;;;;;5052908;28;20029;-74
2022/08/26 13:13:50;;;;;;;1.20;0.88;;;30.30;50.50;;;;;;5052760;28;20075;-74